Hopkins Park, IL (60944)

9:41 AM CST on December 22, 2014 (GMT -0600)
Rural North Momence | Change Station
CLOSE
Current Station
Personal Weather Station
Location: Grant Park, IL
Elevation: 692 ft
Nearby Weather Stations

Elev 692 ft 41.20 °N, 87.65 °W | Updated 2 minutes ago

Overcast
Overcast
33.3 °F
Feels Like 28 °F
N
6.0
Wind Variable Wind from SSE
Gusts 9.0 mph

Today
High -- | Low -- °F
--% Chance of Precip.
Yesterday
High -- | Low -- °F
Precip. -- in
7:12 AM 4:25 PM
New Moon, 0% visible
Pressure 29.89 in
Visibility 7.0 miles
Clouds Scattered Clouds 3300 ft
Overcast 5000 ft
Windchill 28 °F
Dew Point 30 °F
Humidity 89%
Rainfall 0.00 in
Snow Depth Not available.
UV 0 out of 12
Pollen .10 out of 12
Air Quality Not available.
Flu Activity Not available.
METAR KIKK 221515Z AUTO 11012KT 7SM SCT033 OVC050 01/M01 A2989 RMK AO2 T00061013

More Conditions Fewer Conditions

Pressure 29.89 in
Visibility 7.0 miles
Clouds Scattered Clouds 3300 ft
Overcast 5000 ft
Windchill 28 °F
Dew Point 30 °F
Humidity 89%
Rainfall 0.00 in
Snow Depth Not available.
UV 0 out of 12
Pollen .10 out of 12
Air Quality Not available.
Flu Activity Not available.
METAR KIKK 221515Z AUTO 11012KT 7SM SCT033 OVC050 01/M01 A2989 RMK AO2 T00061013

More Conditions Fewer Conditions

10-Day Weather Forecast

Almanac

Astronomy

Dec. 22, 2014 Rise Set
Actual Time
Civil Twilight
Nautical Twilight
Astronomical Twilight
Moon
Length of Visible Light
Length of Day
Tomorrow will be .
, % of the Moon is Illuminated

Today's Extremes

State Highs State Lows

Community

WunderPhotos

Upload Photos

1,779,620 photos uploaded!

WunderBlogs® & News

Nearby

Air Quality

  Air Quality AQ Index Pollutant
Not available.

Snow Depth

Station Depth Elevation

Earthquake Activity

City Distance Mag. Time & Date
Minimum magnitude displayed is 2.5.

Coastal Water Temperatures

Place Temperature

Nearby Weather Stations